Flight Track Log - Related Links

Times and Time Zones

All times are in EDT time to prevent confusion due to time zone crossing. See the EJA941 flight status page for this flight to view local times or setup timezone preferences in your user account.

Time Position Orientation Groundspeed Altitude Reporting Facility
EDT Latitude Longitude Course Direction KTS MPH feet Rate Location/Type
Thu 09:44:59 AM 44.8897 -93.3022 231° Southwest 211 243 5,500  Level Minneapolis Center
Thu 09:46:01 AM 44.8603 -93.3842 243° Southwest 260 299 6,900 1,122 Climbing Minneapolis Center
Thu 09:47:02 AM 44.7767 -93.4306 201° Southwest 273 314 7,800 2,049 Climbing Minneapolis Center
Thu 09:48:04 AM 44.7050 -93.4850 208° Southwest 305 351 11,100 3,048 Climbing Minneapolis Center
Thu 09:49:06 AM 44.6650 -93.5972 243° Southwest 323 372 14,100 2,806 Climbing Minneapolis Center
Thu 09:50:00 AM 44.4644 -93.7812 231° Southwest  Level Estimated
Thu 09:50:08 AM 44.6261 -93.7139 245° Southwest 330 380 16,900  Level Minneapolis Center
Thu 09:51:09 AM 44.5864 -93.8328 245° Southwest 335 386 19,000 1,512 Climbing Minneapolis Center
Thu 09:52:11 AM 44.5144 -93.9764 235° Southwest 375 432 20,000 484 Climbing Minneapolis Center
Thu 09:53:13 AM 44.4458 -94.1067 234° Southwest 410 472 20,000  Level Minneapolis Center
Thu 09:54:15 AM 44.3719 -94.2461 233° Southwest 439 505 20,000  Level Minneapolis Center
Thu 09:55:16 AM 44.2967 -94.3892 234° Southwest 454 522 20,000  Level Minneapolis Center
Thu 09:56:18 AM 44.2194 -94.5261 232° Southwest 452 520 20,000  Level Minneapolis Center
Thu 09:57:20 AM 44.1058 -94.6458 217° Southwest 450 518 20,000  Level Minneapolis Center
Thu 09:58:22 AM 44.0072 -94.7503 217° Southwest 447 514 20,000  Level Minneapolis Center
Thu 09:59:23 AM 43.9089 -94.8539 217° Southwest 444 511 20,000  Level Minneapolis Center
Thu 10:00:25 AM 43.8097 -94.9575 217° Southwest 445 512 20,000  Level Minneapolis Center
Thu 10:01:27 AM 43.7108 -95.0600 217° Southwest 443 510 20,000  Level Minneapolis Center
Thu 10:02:29 AM 43.6122 -95.1631 217° Southwest 443 510 20,000  Level Minneapolis Center
Thu 10:03:31 AM 43.5139 -95.2644 217° Southwest 442 509 20,000  Level Minneapolis Center
Thu 10:04:32 AM 43.3939 -95.3864 216° Southwest 444 511 20,000  Level Minneapolis Center
Thu 10:05:34 AM 43.2958 -95.4883 217° Southwest 442 509 20,000 -919 Level Minneapolis Center
Thu 10:06:36 AM 43.1961 -95.5886 216° Southwest 444 511 18,100 -2,177 Descending Minneapolis Center
Thu 10:07:38 AM 43.0992 -95.6881 217° Southwest 439 505 15,500 -2,516 Descending Minneapolis Center
Thu 10:08:40 AM 43.0092 -95.7808 217° Southwest 419 482 12,900 -2,129 Descending Minneapolis Center
Thu 10:09:42 AM 42.9214 -95.8636 215° Southwest 398 458 11,100 -1,210 Descending Minneapolis Center
Thu 10:10:44 AM 42.8486 -95.9414 218° Southwest 352 405 10,400 -1,355 Descending Minneapolis Center
Thu 10:11:46 AM 42.7728 -96.0181 217° Southwest 297 342 8,300 -1,984 Descending Minneapolis Center
Thu 10:12:48 AM 42.7094 -96.0794 215° Southwest 281 323 6,300 -1,610 Descending Minneapolis Center
Thu 10:13:49 AM 42.6478 -96.1453 218° Southwest 281 323 5,000 -634 Descending Minneapolis Center
Thu 10:14:51 AM 42.5933 -96.1983 216° Southwest 255 293 5,000 -242 Level Minneapolis Center
Thu 10:15:53 AM 42.5467 -96.2653 227° Southwest 250 288 4,500 -726 Descending Minneapolis Center
Thu 10:16:55 AM 42.5172 -96.3381 241° Southwest 237 273 3,500 -774 Descending Minneapolis Center
Thu 10:17:57 AM 42.4881 -96.4119 242° Southwest 225 259 2,900 -619 Descending Minneapolis Center
Thu 10:19:01 AM 42.4403 -96.3642 144° Southeast 202 232 2,200 -656 Descending Minneapolis Center
Thu 10:21:00 AM 42.4000 -96.3833 216° Southwest  Level FlightAware Approximate
Thu 10:28:00 AM 42.4026 -96.3844 216° Southwest  Level Estimated

Login

Don't have an account? Register now (free) for customized features, flight alerts, and more!